Time;durP1;ratioP1;P1;durP2;ratioP2;P2;SDS_P1;SDS_P2;PMS_P1;PMS_P2;Temp;Humidity;BMP_temperature;BMP_pressure;BME280_temperature;BME280_humidity;BME280_pressure;Samples;Min_cycle;Max_cycle;Signal;HPM_P1;HPM_P2
2022/05/27 00:01:54;;;;;;;2.90;1.90;;;;;;;-145.69;100.00;72337.75;5073664;28;20211;-79
2022/05/27 00:04:21;;;;;;;6.43;2.00;;;;;;;-145.69;100.00;72341.72;5074075;28;20288;-79
2022/05/27 00:06:47;;;;;;;2.10;1.90;;;;;;;-145.69;100.00;72359.63;5063286;28;20199;-79
2022/05/27 00:09:14;;;;;;;2.67;1.60;;;;;;;-145.69;100.00;72365.59;5054090;28;20207;-80
2022/05/27 00:11:40;;;;;;;5.93;1.73;;;;;;;-145.69;100.00;72369.59;5057405;28;20194;-80
2022/05/27 00:14:07;;;;;;;3.37;1.83;;;;;;;-145.69;100.00;72353.66;5073524;28;20538;-79
2022/05/27 00:16:34;;;;;;;3.23;1.90;;;;;;;-145.69;100.00;72353.66;5073742;28;20228;-80
2022/05/27 00:19:01;;;;;;;5.87;2.00;;;;;;;-145.69;100.00;72343.72;5073660;28;20229;-79
2022/05/27 00:21:28;;;;;;;6.13;1.83;;;;;;;-145.69;100.00;72321.81;5073763;28;20553;-79
2022/05/27 00:23:55;;;;;;;7.60;2.07;;;;;;;-145.69;100.00;72331.78;5073216;28;20276;-79
2022/05/27 00:26:21;;;;;;;4.27;1.83;;;;;;;-145.69;100.00;72347.69;5073257;28;20227;-79
2022/05/27 00:28:48;;;;;;;3.27;1.70;;;;;;;-145.69;100.00;72369.59;5073616;28;20198;-79
2022/05/27 00:31:18;;;;;;;5.03;1.40;;;;;;;-145.69;100.00;72391.47;5073685;28;20604;-79
2022/05/27 00:33:45;;;;;;;6.87;1.73;;;;;;;-145.69;100.00;72401.44;5073263;28;20237;-79
2022/05/27 00:36:12;;;;;;;6.33;1.80;;;;;;;-145.69;100.00;72395.47;5072827;28;20195;-79
2022/05/27 00:38:40;;;;;;;3.60;1.97;;;;;;;-145.69;100.00;72377.53;5072976;28;20206;-79
2022/05/27 00:41:07;;;;;;;5.03;2.00;;;;;;;-145.69;100.00;72387.50;5073030;28;20316;-79
2022/05/27 00:43:34;;;;;;;8.47;2.30;;;;;;;-145.69;100.00;72395.47;5073296;28;20211;-80
2022/05/27 00:46:05;;;;;;;4.23;1.67;;;;;;;-145.69;100.00;72409.38;5072529;28;20195;-79
2022/05/27 00:48:34;;;;;;;4.83;1.80;;;;;;;-145.69;100.00;72401.44;5073076;28;20202;-79
2022/05/27 00:51:14;;;;;;;2.00;1.80;;;;;;;-145.69;100.00;72405.41;5072667;28;20563;-79
2022/05/27 00:53:45;;;;;;;2.10;1.70;;;;;;;-145.69;100.00;72395.47;5073051;28;20711;-79
2022/05/27 00:56:14;;;;;;;4.27;2.30;;;;;;;-145.69;100.00;72381.53;5072997;28;20198;-80
2022/05/27 00:58:46;;;;;;;3.93;2.50;;;;;;;-145.69;100.00;72369.59;5072250;28;20207;-79
2022/05/27 01:01:14;;;;;;;3.43;2.20;;;;;;;-145.69;100.00;72361.63;5073078;28;20206;-80
2022/05/27 01:03:42;;;;;;;4.77;2.50;;;;;;;-145.69;100.00;72359.63;5072699;28;20226;-80
2022/05/27 01:06:10;;;;;;;4.20;2.70;;;;;;;-145.69;100.00;72357.66;5072560;28;20207;-79
2022/05/27 01:08:37;;;;;;;3.10;2.50;;;;;;;-145.69;100.00;72361.63;5072471;28;20715;-79
2022/05/27 01:11:14;;;;;;;3.43;2.70;;;;;;;-145.69;100.00;72349.69;5072544;28;20672;-79
2022/05/27 01:13:50;;;;;;;3.20;1.87;;;;;;;-145.69;100.00;72357.66;5072562;28;20653;-79
2022/05/27 01:16:27;;;;;;;4.13;1.90;;;;;;;-145.69;100.00;72357.66;5072642;28;20600;-80
2022/05/27 01:22:18;;;;;;;3.33;2.30;;;;;;;-145.69;100.00;72369.59;5072804;28;20665;-80
2022/05/27 01:25:08;;;;;;;4.33;1.97;;;;;;;-145.69;100.00;72377.53;5072292;28;20241;-80
2022/05/27 01:27:58;;;;;;;6.33;2.50;;;;;;;-145.69;100.00;72389.50;5072306;28;20665;-80
2022/05/27 01:30:32;;;;;;;4.57;2.03;;;;;;;-145.69;100.00;72399.44;5072859;28;20202;-80
2022/05/27 01:33:17;;;;;;;4.07;1.90;;;;;;;-145.69;100.00;72399.44;5072649;28;20202;-79
2022/05/27 01:35:52;;;;;;;6.63;2.17;;;;;;;-145.69;100.00;72393.47;5072920;28;20210;-79
2022/05/27 01:38:24;;;;;;;3.77;1.90;;;;;;;-145.69;100.00;72393.47;5072817;28;20620;-80
2022/05/27 01:40:59;;;;;;;4.67;2.43;;;;;;;-145.69;100.00;72407.41;5072366;28;20584;-80
2022/05/27 01:43:34;;;;;;;4.10;2.20;;;;;;;-145.69;100.00;72409.38;5072299;28;20201;-79
2022/05/27 01:46:08;;;;;;;6.60;2.63;;;;;;;-145.69;100.00;72399.44;5072806;28;20202;-80
2022/05/27 01:48:41;;;;;;;8.23;2.73;;;;;;;-145.69;100.00;72387.50;5072781;28;20206;-79
2022/05/27 01:51:11;;;;;;;5.87;2.53;;;;;;;-145.69;100.00;72391.47;5072404;28;21826;-79
2022/05/27 01:53:45;;;;;;;3.43;2.30;;;;;;;-145.69;100.00;72401.44;5072472;28;20722;-79
2022/05/27 01:56:17;;;;;;;4.57;3.00;;;;;;;-145.69;100.00;72409.38;5072270;28;20652;-79
2022/05/27 01:58:48;;;;;;;8.20;3.27;;;;;;;-145.69;100.00;72377.53;5072474;28;20203;-79
2022/05/27 02:01:21;;;;;;;5.47;2.40;;;;;;;-145.69;100.00;72381.53;5072698;28;20712;-79
2022/05/27 02:03:53;;;;;;;4.97;2.63;;;;;;;-145.69;100.00;72397.44;5075928;28;20190;-79
2022/05/27 02:06:25;;;;;;;6.67;2.70;;;;;;;-145.69;100.00;72393.47;5067934;28;20245;-79
2022/05/27 02:08:57;;;;;;;5.93;2.43;;;;;;;-145.69;100.00;72381.53;5056416;28;20200;-79
2022/05/27 02:11:25;;;;;;;5.30;2.63;;;;;;;-145.69;100.00;72389.50;5056217;28;20199;-79
2022/05/27 02:13:55;;;;;;;3.93;2.70;;;;;;;-145.69;100.00;72381.53;5062784;28;20199;-79
2022/05/27 02:16:36;;;;;;;6.63;2.90;;;;;;;-145.69;100.00;72379.53;5075864;28;20596;-79
2022/05/27 02:19:07;;;;;;;3.33;2.67;;;;;;;-145.69;100.00;72383.53;5075833;28;20199;-79
2022/05/27 02:21:39;;;;;;;5.30;2.60;;;;;;;-145.69;100.00;72389.50;5076127;28;20231;-79
2022/05/27 02:24:11;;;;;;;7.07;2.60;;;;;;;-145.69;100.00;72405.41;5075910;28;20282;-79
2022/05/27 02:26:42;;;;;;;6.90;2.50;;;;;;;-145.69;100.00;72419.34;5075381;28;20230;-79
2022/05/27 02:29:14;;;;;;;7.10;2.43;;;;;;;-145.69;100.00;72433.28;5075141;28;20206;-79
2022/05/27 02:31:47;;;;;;;3.40;2.83;;;;;;;-145.69;100.00;72435.28;5075654;28;20673;-80
2022/05/27 02:37:06;;;;;;;10.13;2.60;;;;;;;-145.69;100.00;72429.28;5074904;28;20205;-79
2022/05/27 02:39:34;;;;;;;7.93;3.20;;;;;;;-145.69;100.00;72411.38;5075784;28;20198;-79
2022/05/27 02:42:07;;;;;;;7.77;2.57;;;;;;;-145.69;100.00;72401.44;5075070;28;20213;-80
2022/05/27 02:44:42;;;;;;;4.83;2.50;;;;;;;-145.69;100.00;72421.34;5075331;28;20276;-79
2022/05/27 02:47:16;;;;;;;8.37;3.07;;;;;;;-145.69;100.00;72409.38;5074629;28;20244;-80
2022/05/27 02:49:54;;;;;;;9.37;3.17;;;;;;;-145.69;100.00;72397.44;5075373;28;20203;-80
2022/05/27 02:52:32;;;;;;;5.13;3.00;;;;;;;-145.69;100.00;72411.38;5075029;28;20203;-79
2022/05/27 02:55:08;;;;;;;4.60;3.10;;;;;;;-145.69;100.00;72393.47;5075131;28;20207;-80
2022/05/27 02:57:41;;;;;;;7.33;3.17;;;;;;;-145.69;100.00;72371.56;5075081;28;20194;-80
2022/05/27 03:00:12;;;;;;;5.03;2.93;;;;;;;-145.69;100.00;72373.56;5075357;28;20206;-80
2022/05/27 03:02:40;;;;;;;4.87;2.97;;;;;;;-145.69;100.00;72357.66;5074563;28;20198;-80
2022/05/27 03:05:08;;;;;;;10.07;3.50;;;;;;;-145.69;100.00;72365.59;5074920;28;20461;-80
2022/05/27 03:07:45;;;;;;;5.23;3.30;;;;;;;-145.69;100.00;72361.63;5075207;28;20210;-80
2022/05/27 03:10:27;;;;;;;7.13;2.83;;;;;;;-145.69;100.00;72375.56;5055227;28;20217;-80
2022/05/27 03:13:11;;;;;;;9.47;3.57;;;;;;;-145.69;100.00;72369.59;5054479;28;20199;-80
2022/05/27 03:15:50;;;;;;;8.00;2.90;;;;;;;-145.69;100.00;72369.59;5054697;28;20224;-79
2022/05/27 03:18:31;;;;;;;5.77;3.40;;;;;;;-145.69;100.00;72339.72;5055079;28;20230;-80
2022/05/27 03:21:07;;;;;;;9.00;3.40;;;;;;;-145.69;100.00;72333.75;5065283;28;20553;-80
2022/05/27 03:24:02;;;;;;;6.83;3.60;;;;;;;-145.69;100.00;72325.81;5074541;28;20526;-79
2022/05/27 03:26:38;;;;;;;4.50;2.73;;;;;;;-145.69;100.00;72339.72;5072896;28;20664;-79
2022/05/27 03:29:22;;;;;;;5.80;2.97;;;;;;;-145.69;100.00;72339.72;5074933;28;20211;-79
2022/05/27 03:31:56;;;;;;;6.40;3.13;;;;;;;-145.69;100.00;72323.81;5073671;28;20205;-79
2022/05/27 03:34:29;;;;;;;5.60;3.47;;;;;;;-145.69;100.00;72331.78;5074790;28;20202;-79
2022/05/27 03:37:02;;;;;;;4.57;3.00;;;;;;;-145.69;100.00;72341.72;5074759;28;20202;-80
2022/05/27 03:39:33;;;;;;;5.47;3.53;;;;;;;-145.69;100.00;72337.75;5074297;28;20205;-80
2022/05/27 03:42:02;;;;;;;6.77;3.07;;;;;;;-145.69;100.00;72329.78;5073906;28;20207;-79
2022/05/27 03:44:30;;;;;;;12.83;3.70;;;;;;;-145.69;100.00;72325.81;5073698;28;20198;-79
2022/05/27 03:46:58;;;;;;;5.57;2.87;;;;;;;-145.69;100.00;72337.75;5074473;28;20277;-80
2022/05/27 03:49:27;;;;;;;5.23;3.00;;;;;;;-145.69;100.00;72339.72;5074184;28;20214;-80
2022/05/27 03:51:58;;;;;;;8.00;3.50;;;;;;;-145.69;100.00;72323.81;5074164;28;20205;-79
2022/05/27 03:54:25;;;;;;;6.53;2.93;;;;;;;-145.69;100.00;72339.72;5054299;28;20211;-80
2022/05/27 03:56:52;;;;;;;6.57;2.80;;;;;;;-145.69;100.00;72349.69;5054007;28;20203;-79
2022/05/27 03:59:19;;;;;;;5.03;2.20;;;;;;;-145.69;100.00;72369.59;5054309;28;20214;-79
2022/05/27 04:01:51;;;;;;;5.57;2.23;;;;;;;-145.69;100.00;72383.53;5070770;28;20720;-79
2022/05/27 04:04:21;;;;;;;5.60;2.70;;;;;;;-145.69;100.00;72393.47;5064577;28;20539;-79
2022/05/27 04:06:49;;;;;;;5.93;2.70;;;;;;;-145.69;100.00;72397.44;5053664;28;20207;-79
2022/05/27 04:09:16;;;;;;;7.70;3.13;;;;;;;-145.69;100.00;72379.53;5053672;28;20204;-80
2022/05/27 04:11:43;;;;;;;5.63;3.33;;;;;;;-145.69;100.00;72379.53;5069430;28;20665;-80
2022/05/27 04:14:10;;;;;;;4.20;3.23;;;;;;;-145.69;100.00;72383.53;5074092;28;20653;-80
2022/05/27 04:16:37;;;;;;;7.13;3.85;;;;;;;-145.69;100.00;72367.59;5071984;28;20434;-80
2022/05/27 04:19:04;;;;;;;7.97;3.60;;;;;;;-145.69;100.00;72361.63;5073910;28;20206;-79
2022/05/27 04:21:31;;;;;;;5.63;2.47;;;;;;;-145.69;100.00;72379.53;5073693;28;20195;-79
2022/05/27 04:23:59;;;;;;;7.80;2.63;;;;;;;-145.69;100.00;72375.56;5071890;28;20450;-80
2022/05/27 04:26:25;;;;;;;5.77;2.77;;;;;;;-145.69;100.00;72373.56;5073213;28;20242;-80
2022/05/27 04:28:52;;;;;;;6.37;3.47;;;;;;;-145.69;100.00;72357.66;5073683;28;20206;-80
2022/05/27 04:31:19;;;;;;;7.67;3.30;;;;;;;-145.69;100.00;72327.78;5073202;28;20195;-80
2022/05/27 04:33:45;;;;;;;7.73;3.53;;;;;;;-145.69;100.00;72299.91;5073326;28;20203;-80
2022/05/27 04:36:14;;;;;;;16.80;3.80;;;;;;;-145.69;100.00;72272.06;5073012;28;20558;-80
2022/05/27 04:38:42;;;;;;;7.20;2.93;;;;;;;-145.69;100.00;72264.09;5073180;28;20195;-80
2022/05/27 04:41:10;;;;;;;6.57;3.13;;;;;;;-145.69;100.00;72254.16;5073477;28;20668;-80
2022/05/27 04:43:36;;;;;;;3.63;2.83;;;;;;;-145.69;100.00;72228.28;5073018;28;20203;-80
2022/05/27 04:46:03;;;;;;;3.47;2.37;;;;;;;-145.69;100.00;72234.25;5073176;28;20580;-80
2022/05/27 04:48:30;;;;;;;4.33;2.23;;;;;;;-145.69;100.00;72226.28;5072790;28;20657;-80
2022/05/27 04:50:56;;;;;;;5.20;2.30;;;;;;;-145.69;100.00;72204.38;5072920;28;20205;-79
2022/05/27 04:53:23;;;;;;;8.33;2.80;;;;;;;-145.69;100.00;72166.56;5073499;28;20206;-80
2022/05/27 04:55:49;;;;;;;6.37;3.00;;;;;;;-145.69;100.00;72128.75;5073281;28;20570;-80
2022/05/27 04:58:17;;;;;;;6.37;2.70;;;;;;;-145.69;100.00;72102.88;5073247;28;20202;-80
2022/05/27 05:00:47;;;;;;;6.17;2.73;;;;;;;-145.69;100.00;72075.03;5072519;28;20195;-80
2022/05/27 05:03:14;;;;;;;3.67;2.40;;;;;;;-145.69;100.00;72023.28;5072700;28;20199;-80
2022/05/27 05:05:41;;;;;;;6.70;2.13;;;;;;;-145.69;100.00;71991.44;5072628;28;20230;-80
2022/05/27 05:08:15;;;;;;;4.67;2.53;;;;;;;-145.69;100.00;71961.59;5072910;28;20673;-80
2022/05/27 05:10:42;;;;;;;9.27;2.10;;;;;;;-145.69;100.00;71947.66;5072457;28;20626;-80
2022/05/27 05:13:08;;;;;;;5.97;2.00;;;;;;;-145.69;100.00;71917.81;5072964;28;20203;-81
2022/05/27 05:15:37;;;;;;;4.67;2.10;;;;;;;-145.69;100.00;71913.81;5073062;28;20206;-80
2022/05/27 05:18:04;;;;;;;3.70;1.60;;;;;;;-145.69;100.00;71897.91;5072873;28;20285;-80
2022/05/27 05:20:32;;;;;;;9.43;2.07;;;;;;;-145.69;100.00;71885.97;5072957;28;20203;-81
2022/05/27 05:22:59;;;;;;;4.80;1.80;;;;;;;-145.69;100.00;71872.03;5073075;28;20206;-82
2022/05/27 05:25:26;;;;;;;3.67;1.73;;;;;;;-145.69;100.00;71848.16;5072904;28;20244;-81
2022/05/27 05:27:53;;;;;;;6.00;1.77;;;;;;;-145.69;100.00;71844.16;5072748;28;20234;-81
2022/05/27 05:30:23;;;;;;;2.40;1.43;;;;;;;-145.69;100.00;71848.16;5072912;28;20549;-82
2022/05/27 05:32:50;;;;;;;3.55;1.70;;;;;;;-145.69;100.00;71852.13;5072547;28;20209;-81
2022/05/27 05:35:18;;;;;;;4.03;1.55;;;;;;;-145.69;100.00;71840.19;5072746;28;20264;-80
2022/05/27 05:37:45;;;;;;;3.07;1.60;;;;;;;-145.69;100.00;71830.25;5076781;28;20198;-79
2022/05/27 05:40:13;;;;;;;5.43;1.80;;;;;;;-145.69;100.00;71804.38;5076819;28;20203;-80
2022/05/27 05:42:40;;;;;;;3.72;1.77;;;;;;;-145.69;100.00;71782.47;5076773;28;20688;-80
2022/05/27 05:45:08;;;;;;;9.10;1.92;;;;;;;-145.69;100.00;71768.53;5076484;28;20248;-80
2022/05/27 05:47:35;;;;;;;4.00;1.52;;;;;;;-145.69;100.00;71760.59;5076584;28;20202;-80
2022/05/27 05:50:03;;;;;;;3.38;1.65;;;;;;;-145.69;100.00;71746.66;5076472;28;20199;-80
2022/05/27 05:52:30;;;;;;;3.22;1.58;;;;;;;-145.69;100.00;71752.63;5076250;28;20198;-80
2022/05/27 05:54:56;;;;;;;3.30;1.60;;;;;;;-145.69;100.00;71758.59;5076495;28;20210;-80
2022/05/27 05:57:23;;;;;;;5.45;1.55;;;;;;;-145.69;100.00;71762.56;5076207;28;20199;-81
2022/05/27 05:59:49;;;;;;;4.13;1.42;;;;;;;-145.69;100.00;71740.69;5075502;28;20943;-80
2022/05/27 06:02:16;;;;;;;4.05;1.67;;;;;;;-145.69;100.00;71724.75;5076247;28;20199;-81
2022/05/27 06:04:42;;;;;;;3.88;1.50;;;;;;;-145.69;100.00;71726.75;5076422;28;20198;-81
2022/05/27 06:07:10;;;;;;;3.80;1.50;;;;;;;-145.69;100.00;71736.72;5075593;28;20238;-81
2022/05/27 06:09:38;;;;;;;2.05;1.35;;;;;;;-145.69;100.00;71730.72;5074542;28;20565;-82
2022/05/27 06:12:05;;;;;;;5.45;2.10;;;;;;;-145.69;100.00;71726.75;5073432;28;20199;-81
2022/05/27 06:14:32;;;;;;;3.58;1.30;;;;;;;-145.69;100.00;71710.84;5075729;28;20249;-80
2022/05/27 06:16:58;;;;;;;2.45;1.35;;;;;;;-145.69;100.00;71682.97;5075993;28;20195;-79
2022/05/27 06:19:25;;;;;;;4.18;1.30;;;;;;;-145.69;99.10;71706.84;5076302;28;20198;-80
2022/05/27 06:21:51;;;;;;;2.60;1.42;;;;;;;-145.69;99.25;71704.88;5075021;28;20209;-81
2022/05/27 06:24:19;;;;;;;4.88;1.50;;;;;;;-145.69;99.35;71724.75;5075646;28;20195;-80
2022/05/27 06:26:46;;;;;;;5.07;1.25;;;;;;;-145.69;98.99;71706.84;5075693;28;20262;-79
2022/05/27 06:34:40;;;;;;;5.15;1.45;;;;;;;-145.69;100.00;71706.84;5075711;28;20660;-80
2022/05/27 06:37:11;;;;;;;1.80;1.33;;;;;;;-145.69;99.87;71730.72;5075201;28;20207;-80
2022/05/27 06:39:40;;;;;;;3.08;1.40;;;;;;;-145.69;99.88;71724.75;5075347;28;20560;-80
2022/05/27 06:42:09;;;;;;;2.33;1.40;;;;;;;-145.69;98.65;71716.81;5075425;28;20442;-80
2022/05/27 06:44:36;;;;;;;5.15;1.48;;;;;;;-145.69;99.23;71734.72;5075607;28;20553;-80
2022/05/27 06:47:03;;;;;;;2.90;1.60;;;;;;;-145.69;100.00;71732.72;5074967;28;20234;-80
2022/05/27 06:49:29;;;;;;;3.63;1.75;;;;;;;-145.69;100.00;71732.72;5075053;28;20199;-79
2022/05/27 06:51:56;;;;;;;2.53;1.33;;;;;;;-145.69;100.00;71704.88;5075170;28;20195;-80
2022/05/27 06:54:22;;;;;;;1.92;1.40;;;;;;;-145.69;100.00;71692.94;5075766;28;20262;-80
2022/05/27 06:56:52;;;;;;;4.15;1.65;;;;;;;-145.69;98.00;71688.94;5075426;28;20256;-80
2022/05/27 06:59:20;;;;;;;5.32;1.60;;;;;;;-145.69;97.23;71712.81;5074906;28;20223;-79
2022/05/27 07:01:47;;;;;;;3.72;1.40;;;;;;;-145.69;98.98;71680.97;5074848;28;20199;-80
2022/05/27 07:04:13;;;;;;;3.92;1.50;;;;;;;-145.69;97.95;71629.25;5075308;28;20199;-80
2022/05/27 07:06:43;;;;;;;3.03;1.58;;;;;;;-145.69;96.69;71637.19;5074756;28;20231;-80
2022/05/27 07:09:10;;;;;;;3.15;1.58;;;;;;;-145.69;93.24;71655.13;5075235;28;20657;-79
2022/05/27 07:11:38;;;;;;;3.42;1.60;;;;;;;-145.69;93.37;71663.06;5074658;28;20206;-79
2022/05/27 07:14:06;;;;;;;2.55;1.40;;;;;;;-145.69;96.09;71669.03;5074768;28;20256;-79
2022/05/27 07:16:33;;;;;;;6.30;1.40;;;;;;;-145.69;95.65;71673.03;5075005;28;20203;-80
2022/05/27 07:18:59;;;;;;;1.38;1.13;;;;;;;-145.69;95.21;71679.00;5074692;28;20225;-80
2022/05/27 07:21:26;;;;;;;4.50;1.75;;;;;;;-145.69;94.42;71682.97;5075114;28;20199;-81
2022/05/27 07:23:53;;;;;;;7.80;1.70;;;;;;;-145.69;98.19;71680.97;5074720;28;20282;-80
2022/05/27 07:26:20;;;;;;;2.72;1.52;;;;;;;-145.69;97.66;71684.97;5074108;28;20322;-79
2022/05/27 07:28:47;;;;;;;2.55;1.23;;;;;;;-145.69;97.18;71669.03;5074429;28;20199;-79
2022/05/27 07:31:17;;;;;;;3.35;1.40;;;;;;;-145.69;98.29;71673.03;5074550;28;20634;-80
2022/05/27 07:33:43;;;;;;;3.83;1.40;;;;;;;-145.69;95.46;71647.16;5074673;28;20202;-79
2022/05/27 07:36:10;;;;;;;2.40;1.40;;;;;;;-145.69;93.44;71625.25;5074194;28;20252;-80
2022/05/27 07:38:37;;;;;;;2.83;1.25;;;;;;;-145.69;91.53;71603.38;5074709;28;20194;-79
2022/05/27 07:41:03;;;;;;;2.15;1.40;;;;;;;-145.69;90.41;71609.34;5074748;28;20211;-79
2022/05/27 07:43:30;;;;;;;6.75;1.67;;;;;;;-145.69;91.12;71579.50;5074444;28;20221;-80
2022/05/27 07:45:56;;;;;;;1.48;1.10;;;;;;;-145.69;93.06;71553.63;5074473;28;20226;-82
2022/05/27 07:48:24;;;;;;;3.92;1.55;;;;;;;-145.69;90.37;71625.25;5073850;28;20632;-86
2022/05/27 07:50:52;;;;;;;5.25;1.92;;;;;;;-145.69;91.72;71661.09;5074460;28;20201;-80
2022/05/27 07:53:19;;;;;;;4.93;1.50;;;;;;;-145.69;92.63;71613.31;5074320;28;20202;-80
2022/05/27 07:55:45;;;;;;;3.47;1.38;;;;;;;-145.69;92.01;71585.47;5074254;28;20238;-79
2022/05/27 07:58:12;;;;;;;4.80;1.50;;;;;;;-145.69;89.56;71597.41;5073435;28;20202;-79
2022/05/27 08:00:38;;;;;;;2.30;1.52;;;;;;;-145.69;90.10;71585.47;5063433;28;20199;-79
2022/05/27 08:03:06;;;;;;;2.78;1.40;;;;;;;-145.69;88.90;71591.44;5054178;28;20199;-79
2022/05/27 08:05:35;;;;;;;7.72;1.63;;;;;;;-145.69;88.39;71575.50;5054039;28;20210;-78
2022/05/27 08:08:02;;;;;;;7.20;1.42;;;;;;;-145.69;90.95;71525.78;5056391;28;20235;-77
2022/05/27 08:10:31;;;;;;;3.40;1.33;;;;;;;-145.69;86.35;71482.00;5073185;28;20203;-78
2022/05/27 08:12:58;;;;;;;3.67;1.25;;;;;;;-145.69;85.06;71470.06;5073904;28;20680;-77
2022/05/27 08:15:25;;;;;;;2.65;1.30;;;;;;;-145.69;86.79;71533.72;5073991;28;20797;-81
2022/05/27 08:17:52;;;;;;;6.13;1.30;;;;;;;-145.69;85.74;71531.75;5073572;28;20670;-82
2022/05/27 08:20:21;;;;;;;5.60;2.00;;;;;;;-145.69;88.01;71517.81;5061601;28;20598;-81
2022/05/27 08:22:50;;;;;;;3.97;1.42;;;;;;;-145.69;88.92;71517.81;5053681;28;20207;-81
2022/05/27 08:25:17;;;;;;;4.70;1.70;;;;;;;-145.69;88.21;71513.81;5053516;28;20313;-79
2022/05/27 08:27:44;;;;;;;3.75;1.38;;;;;;;-145.69;86.36;71509.84;5057523;28;20222;-83
2022/05/27 08:30:13;;;;;;;2.85;1.48;;;;;;;-145.69;85.46;71472.03;5072984;28;20671;-79
2022/05/27 08:32:42;;;;;;;3.25;1.60;;;;;;;-145.69;87.01;71549.66;5073675;28;20199;-83
2022/05/27 08:38:01;;;;;;;3.15;1.48;;;;;;;-145.69;82.89;71499.91;5073352;28;20213;-80
2022/05/27 08:40:46;;;;;;;2.95;1.23;;;;;;;-145.69;85.88;71533.72;5073162;28;20221;-79
2022/05/27 08:43:20;;;;;;;7.13;1.50;;;;;;;-145.69;87.14;71521.78;5073082;28;20199;-79
2022/05/27 08:45:55;;;;;;;3.53;1.50;;;;;;;-145.69;86.11;71521.78;5072981;28;20600;-78
2022/05/27 08:48:25;;;;;;;2.58;1.40;;;;;;;-145.69;89.45;71541.69;5073128;28;20206;-80
2022/05/27 08:50:55;;;;;;;2.75;1.35;;;;;;;-145.69;85.51;71489.94;5072930;28;20198;-79
2022/05/27 08:53:33;;;;;;;3.10;1.35;;;;;;;-145.69;86.39;71454.13;5073286;28;20199;-78
2022/05/27 09:01:39;;;;;;;3.75;1.33;;;;;;;-145.69;83.87;71468.06;5073166;28;20193;-80
2022/05/27 09:04:14;;;;;;;4.82;1.42;;;;;;;-145.69;84.02;71446.16;5072873;28;20623;-80
2022/05/27 09:06:45;;;;;;;12.38;1.70;;;;;;;-145.69;82.26;71424.28;5072764;28;20218;-79
2022/05/27 09:09:19;;;;;;;3.40;1.63;;;;;;;-145.69;81.09;71448.16;5073050;28;20210;-81
2022/05/27 09:11:59;;;;;;;5.45;1.63;;;;;;;-145.69;80.89;71432.25;5072851;28;20187;-79
2022/05/27 09:14:31;;;;;;;4.18;1.52;;;;;;;-145.69;79.14;71485.97;5073125;28;20198;-80
2022/05/27 09:17:01;;;;;;;1.88;1.20;;;;;;;-145.69;81.17;71478.00;5073095;28;20282;-80
2022/05/27 09:19:38;;;;;;;3.83;1.50;;;;;;;-145.69;81.50;71480.00;5072538;28;20199;-81
2022/05/27 09:22:14;;;;;;;5.97;1.52;;;;;;;-145.69;78.92;71426.28;5072861;28;20206;-80
2022/05/27 09:24:53;;;;;;;3.00;1.60;;;;;;;-145.69;79.94;71406.38;5072647;28;20202;-82
2022/05/27 09:27:26;;;;;;;1.25;1.10;;;;;;;-145.69;79.54;71430.25;5072272;28;20760;-82
2022/05/27 09:29:58;;;;;;;2.47;1.45;;;;;;;-145.69;80.32;71418.31;5072650;28;20680;-82
2022/05/27 09:32:32;;;;;;;6.82;1.40;;;;;;;-145.69;80.03;71362.59;5072460;28;20199;-80
2022/05/27 09:35:05;;;;;;;4.88;1.40;;;;;;;-145.69;77.62;71384.47;5072880;28;20202;-80
2022/05/27 09:37:35;;;;;;;3.50;1.60;;;;;;;-145.69;77.76;71350.66;5072412;28;20199;-80
2022/05/27 09:40:10;;;;;;;10.25;1.80;;;;;;;-145.69;82.20;71440.19;5073130;28;20210;-79
2022/05/27 09:42:43;;;;;;;3.90;1.70;;;;;;;-145.69;82.23;71454.13;5068612;28;20208;-81
2022/05/27 09:45:11;;;;;;;3.33;1.70;;;;;;;-145.69;83.32;71424.28;5072175;28;20233;-83
2022/05/27 09:47:40;;;;;;;2.45;1.30;;;;;;;-145.69;81.51;71380.50;5072364;28;20280;-78
2022/05/27 09:50:11;;;;;;;8.65;1.92;;;;;;;-145.69;79.60;71384.47;5072725;28;20226;-86
2022/05/27 09:52:41;;;;;;;2.65;1.17;;;;;;;-145.69;79.08;71354.63;5072114;28;20195;-77
2022/05/27 09:55:22;;;;;;;2.13;1.50;;;;;;;-145.69;79.95;71398.41;5072476;28;20195;-85
2022/05/27 09:57:58;;;;;;;3.38;1.95;;;;;;;-145.69;82.36;71470.06;5072693;28;20657;-82
2022/05/27 10:00:37;;;;;;;4.88;1.55;;;;;;;-145.69;82.30;71438.22;5072224;28;20653;-81
2022/05/27 10:03:26;;;;;;;3.08;1.33;;;;;;;-145.69;80.32;71406.38;5072146;28;20233;-79
2022/05/27 10:05:55;;;;;;;4.80;1.60;;;;;;;-145.69;80.03;71400.41;5072215;28;20203;-81
2022/05/27 10:08:29;;;;;;;3.67;1.80;;;;;;;-145.69;83.58;71432.25;5072233;28;20227;-83
2022/05/27 10:11:17;;;;;;;4.07;1.42;;;;;;;-145.69;81.16;71489.94;5072538;28;20203;-79
2022/05/27 10:13:44;;;;;;;4.18;1.30;;;;;;;-145.69;83.43;71503.88;5071752;28;20191;-85
2022/05/27 10:16:15;;;;;;;2.53;1.30;;;;;;;-145.69;82.04;71493.94;5072304;28;20671;-83
2022/05/27 10:18:44;;;;;;;2.50;1.20;;;;;;;-145.69;80.72;71489.94;5072348;28;20203;-80
2022/05/27 10:21:16;;;;;;;4.53;1.25;;;;;;;-145.69;82.77;71485.97;5057291;28;20277;-77
2022/05/27 10:23:45;;;;;;;2.53;1.38;;;;;;;-145.69;81.71;71487.97;5054806;28;20647;-78
2022/05/27 10:26:27;;;;;;;2.08;1.30;;;;;;;-145.69;79.68;71464.09;5062308;28;20226;-80
2022/05/27 10:29:00;;;;;;;3.92;1.38;;;;;;;-145.69;81.87;71464.09;5076077;28;20209;-80
2022/05/27 10:31:28;;;;;;;3.08;1.38;;;;;;;-145.69;79.97;71394.44;5074723;28;20966;-81
2022/05/27 10:33:56;;;;;;;4.03;1.42;;;;;;;-145.69;77.74;71470.06;5075823;28;20202;-81
2022/05/27 10:36:36;;;;;;;2.08;1.38;;;;;;;-145.69;78.70;71487.97;5075864;28;20222;-82
2022/05/27 10:39:06;;;;;;;5.93;1.40;;;;;;;-145.69;75.80;71468.06;5075445;28;20198;-79
2022/05/27 10:41:51;;;;;;;4.35;1.48;;;;;;;-145.69;76.48;71424.28;5075518;28;20565;-80
2022/05/27 10:44:28;;;;;;;1.95;1.48;;;;;;;-145.69;76.97;71422.28;5075763;28;20268;-79
2022/05/27 10:46:56;;;;;;;2.25;1.20;;;;;;;-145.69;78.32;71392.44;5075550;28;20230;-83
2022/05/27 10:49:43;;;;;;;3.35;1.50;;;;;;;-145.69;75.55;71320.81;5075333;28;20273;-80
2022/05/27 10:52:21;;;;;;;1.67;1.15;;;;;;;-145.69;70.65;71279.03;5075071;28;20196;-83
2022/05/27 10:55:00;;;;;;;5.47;1.45;;;;;;;-145.69;73.35;71340.72;5055364;28;20692;-80
2022/05/27 11:03:34;;;;;;;4.68;1.10;;;;;;;-145.69;69.87;71386.47;5066264;28;20243;-81
2022/05/27 11:06:26;;;;;;;5.13;1.38;;;;;;;-145.69;72.25;71352.66;5074839;28;20692;-80
2022/05/27 11:09:11;;;;;;;3.47;1.42;;;;;;;-145.69;71.89;71348.66;5075108;28;20608;-84
2022/05/27 11:11:44;;;;;;;4.40;1.27;;;;;;;-145.69;73.83;71290.97;5075337;28;20205;-81
2022/05/27 11:17:20;;;;;;;3.42;1.25;;;;;;;-145.69;68.92;71205.41;5074333;28;20329;-79
2022/05/27 11:20:26;;;;;;;3.17;1.63;;;;;;;-145.69;73.34;71207.38;5073293;28;20282;-79
2022/05/27 11:23:05;;;;;;;1.63;0.90;;;;;;;-145.69;67.13;71127.81;5031259;28;20328;-81
2022/05/27 11:25:42;;;;;;;3.15;1.15;;;;;;;-145.69;65.48;71107.91;5054948;28;20266;-81
2022/05/27 11:28:44;;;;;;;2.03;1.08;;;;;;;-145.69;62.78;71179.53;5064569;28;20715;-84
2022/05/27 11:31:25;;;;;;;4.22;1.38;;;;;;;-145.69;69.49;71056.16;5061536;28;20683;-80
2022/05/27 11:33:56;;;;;;;2.85;1.23;;;;;;;-145.69;61.46;71159.63;5074589;28;20251;-78
2022/05/27 11:36:42;;;;;;;4.78;1.40;;;;;;;-145.69;66.16;71245.19;5075083;28;20564;-81
2022/05/27 11:39:26;;;;;;;3.97;1.75;;;;;;;-145.69;67.03;71189.47;5074690;28;20207;-83
2022/05/27 11:42:06;;;;;;;3.00;1.00;;;;;;;-145.69;68.33;71183.50;5073832;28;20439;-85
2022/05/27 11:44:42;;;;;;;2.95;1.13;;;;;;;-145.69;61.62;71131.78;5074301;28;20256;-82
2022/05/27 11:47:24;;;;;;;1.90;1.00;;;;;;;-145.69;62.37;71070.09;5074106;28;20234;-81
2022/05/27 11:50:09;;;;;;;3.97;1.30;;;;;;;-145.69;58.48;70984.53;5074263;28;20195;-80
2022/05/27 11:52:48;;;;;;;5.63;1.30;;;;;;;-145.69;59.64;71072.09;5074012;28;20226;-84
2022/05/27 11:55:40;;;;;;;4.97;1.10;;;;;;;-145.69;61.49;71119.84;5074500;28;20214;-84
2022/05/27 11:58:17;;;;;;;2.20;1.10;;;;;;;-145.69;60.94;71167.59;5074067;28;20202;-83
2022/05/27 12:00:49;;;;;;;6.60;1.20;;;;;;;-145.69;62.86;71115.88;5073754;28;20214;-82